sensor_id;sensor_type;location;lat;lon;timestamp;P1;durP1;ratioP1;P2;durP2;ratioP2
1785;SDS011;890;48.158;11.540;2024-02-28T00:02:23;24.77;;;19.27;;
1785;SDS011;890;48.158;11.540;2024-02-28T00:04:49;24.20;;;18.90;;
1785;SDS011;890;48.158;11.540;2024-02-28T00:07:15;24.60;;;19.60;;
1785;SDS011;890;48.158;11.540;2024-02-28T00:09:41;26.27;;;19.10;;
1785;SDS011;890;48.158;11.540;2024-02-28T00:12:06;25.27;;;20.10;;
1785;SDS011;890;48.158;11.540;2024-02-28T00:14:32;28.80;;;19.90;;
1785;SDS011;890;48.158;11.540;2024-02-28T00:16:58;26.63;;;20.70;;
1785;SDS011;890;48.158;11.540;2024-02-28T00:19:23;27.97;;;20.00;;
1785;SDS011;890;48.158;11.540;2024-02-28T00:21:50;26.03;;;19.50;;
1785;SDS011;890;48.158;11.540;2024-02-28T00:24:16;24.50;;;20.37;;
1785;SDS011;890;48.158;11.540;2024-02-28T00:26:42;25.50;;;19.80;;
1785;SDS011;890;48.158;11.540;2024-02-28T00:29:08;27.40;;;21.50;;
1785;SDS011;890;48.158;11.540;2024-02-28T00:31:34;24.97;;;20.47;;
1785;SDS011;890;48.158;11.540;2024-02-28T00:34:00;25.37;;;19.97;;
1785;SDS011;890;48.158;11.540;2024-02-28T00:36:25;28.13;;;20.43;;
1785;SDS011;890;48.158;11.540;2024-02-28T00:38:51;26.77;;;19.93;;
1785;SDS011;890;48.158;11.540;2024-02-28T00:41:17;27.23;;;20.80;;
1785;SDS011;890;48.158;11.540;2024-02-28T00:43:42;26.57;;;20.97;;
1785;SDS011;890;48.158;11.540;2024-02-28T00:46:08;24.40;;;20.17;;
1785;SDS011;890;48.158;11.540;2024-02-28T00:48:37;27.37;;;21.63;;
1785;SDS011;890;48.158;11.540;2024-02-28T00:51:03;25.20;;;20.70;;
1785;SDS011;890;48.158;11.540;2024-02-28T00:53:29;26.40;;;19.83;;
1785;SDS011;890;48.158;11.540;2024-02-28T00:55:54;28.13;;;19.70;;
1785;SDS011;890;48.158;11.540;2024-02-28T00:58:20;25.47;;;19.40;;
1785;SDS011;890;48.158;11.540;2024-02-28T01:00:47;24.90;;;19.27;;
1785;SDS011;890;48.158;11.540;2024-02-28T01:03:13;25.50;;;19.30;;
1785;SDS011;890;48.158;11.540;2024-02-28T01:05:40;27.13;;;20.07;;
1785;SDS011;890;48.158;11.540;2024-02-28T01:08:06;28.57;;;22.43;;
1785;SDS011;890;48.158;11.540;2024-02-28T01:10:32;25.73;;;20.33;;
1785;SDS011;890;48.158;11.540;2024-02-28T01:12:59;24.77;;;18.03;;
1785;SDS011;890;48.158;11.540;2024-02-28T01:15:24;25.10;;;19.87;;
1785;SDS011;890;48.158;11.540;2024-02-28T01:17:50;26.60;;;20.03;;
1785;SDS011;890;48.158;11.540;2024-02-28T01:20:16;28.23;;;20.60;;
1785;SDS011;890;48.158;11.540;2024-02-28T01:22:41;24.53;;;19.80;;
1785;SDS011;890;48.158;11.540;2024-02-28T01:25:07;30.27;;;19.70;;
1785;SDS011;890;48.158;11.540;2024-02-28T01:27:33;28.90;;;21.30;;
1785;SDS011;890;48.158;11.540;2024-02-28T01:30:00;27.77;;;20.50;;
1785;SDS011;890;48.158;11.540;2024-02-28T01:32:26;26.30;;;20.57;;
1785;SDS011;890;48.158;11.540;2024-02-28T01:34:51;25.57;;;19.57;;
1785;SDS011;890;48.158;11.540;2024-02-28T01:37:17;27.80;;;19.50;;
1785;SDS011;890;48.158;11.540;2024-02-28T01:39:42;24.47;;;18.43;;
1785;SDS011;890;48.158;11.540;2024-02-28T01:42:08;27.13;;;20.00;;
1785;SDS011;890;48.158;11.540;2024-02-28T01:44:35;22.40;;;18.20;;
1785;SDS011;890;48.158;11.540;2024-02-28T01:47:08;25.97;;;18.43;;
1785;SDS011;890;48.158;11.540;2024-02-28T01:49:34;27.93;;;20.83;;
1785;SDS011;890;48.158;11.540;2024-02-28T01:51:59;29.20;;;19.37;;
1785;SDS011;890;48.158;11.540;2024-02-28T01:54:26;28.37;;;20.90;;
1785;SDS011;890;48.158;11.540;2024-02-28T01:56:52;28.50;;;18.90;;
1785;SDS011;890;48.158;11.540;2024-02-28T01:59:19;26.50;;;19.23;;
1785;SDS011;890;48.158;11.540;2024-02-28T02:01:45;25.60;;;19.50;;
1785;SDS011;890;48.158;11.540;2024-02-28T02:04:11;27.60;;;20.83;;
1785;SDS011;890;48.158;11.540;2024-02-28T02:06:37;29.07;;;20.93;;
1785;SDS011;890;48.158;11.540;2024-02-28T02:09:07;24.83;;;21.40;;
1785;SDS011;890;48.158;11.540;2024-02-28T02:11:32;28.00;;;21.70;;
1785;SDS011;890;48.158;11.540;2024-02-28T02:13:59;31.07;;;22.30;;
1785;SDS011;890;48.158;11.540;2024-02-28T02:16:24;30.90;;;21.70;;
1785;SDS011;890;48.158;11.540;2024-02-28T02:18:51;27.10;;;20.47;;
1785;SDS011;890;48.158;11.540;2024-02-28T02:21:17;28.67;;;21.47;;
1785;SDS011;890;48.158;11.540;2024-02-28T02:23:45;27.70;;;20.50;;
1785;SDS011;890;48.158;11.540;2024-02-28T02:26:10;28.20;;;20.97;;
1785;SDS011;890;48.158;11.540;2024-02-28T02:28:36;28.20;;;21.37;;
1785;SDS011;890;48.158;11.540;2024-02-28T02:31:02;25.47;;;19.70;;
1785;SDS011;890;48.158;11.540;2024-02-28T02:33:27;28.37;;;20.90;;
1785;SDS011;890;48.158;11.540;2024-02-28T02:35:53;29.13;;;21.90;;
1785;SDS011;890;48.158;11.540;2024-02-28T02:38:19;27.53;;;21.50;;
1785;SDS011;890;48.158;11.540;2024-02-28T02:40:48;29.13;;;22.17;;
1785;SDS011;890;48.158;11.540;2024-02-28T02:43:14;28.03;;;22.40;;
1785;SDS011;890;48.158;11.540;2024-02-28T02:45:40;29.17;;;20.93;;
1785;SDS011;890;48.158;11.540;2024-02-28T02:48:05;28.83;;;21.00;;
1785;SDS011;890;48.158;11.540;2024-02-28T02:50:31;25.40;;;19.50;;
1785;SDS011;890;48.158;11.540;2024-02-28T02:52:57;28.73;;;20.60;;
1785;SDS011;890;48.158;11.540;2024-02-28T02:55:23;28.47;;;21.40;;
1785;SDS011;890;48.158;11.540;2024-02-28T02:57:48;27.40;;;19.57;;
1785;SDS011;890;48.158;11.540;2024-02-28T03:00:14;32.57;;;20.67;;
1785;SDS011;890;48.158;11.540;2024-02-28T03:02:39;29.57;;;20.20;;
1785;SDS011;890;48.158;11.540;2024-02-28T03:05:05;31.33;;;21.10;;
1785;SDS011;890;48.158;11.540;2024-02-28T03:07:31;30.57;;;20.90;;
1785;SDS011;890;48.158;11.540;2024-02-28T03:09:57;28.90;;;21.20;;
1785;SDS011;890;48.158;11.540;2024-02-28T03:12:24;28.90;;;21.80;;
1785;SDS011;890;48.158;11.540;2024-02-28T03:14:49;31.97;;;23.07;;
1785;SDS011;890;48.158;11.540;2024-02-28T03:17:15;31.47;;;22.80;;
1785;SDS011;890;48.158;11.540;2024-02-28T03:19:41;31.30;;;22.33;;
1785;SDS011;890;48.158;11.540;2024-02-28T03:22:07;30.63;;;22.60;;
1785;SDS011;890;48.158;11.540;2024-02-28T03:24:32;32.97;;;21.20;;
1785;SDS011;890;48.158;11.540;2024-02-28T03:27:01;34.03;;;22.10;;
1785;SDS011;890;48.158;11.540;2024-02-28T03:29:27;31.40;;;21.60;;
1785;SDS011;890;48.158;11.540;2024-02-28T03:31:53;33.07;;;23.47;;
1785;SDS011;890;48.158;11.540;2024-02-28T03:34:19;34.63;;;22.27;;
1785;SDS011;890;48.158;11.540;2024-02-28T03:36:45;32.50;;;22.13;;
1785;SDS011;890;48.158;11.540;2024-02-28T03:39:11;34.30;;;24.57;;
1785;SDS011;890;48.158;11.540;2024-02-28T03:41:37;34.40;;;24.10;;
1785;SDS011;890;48.158;11.540;2024-02-28T03:44:03;33.50;;;22.53;;
1785;SDS011;890;48.158;11.540;2024-02-28T03:46:29;35.70;;;24.37;;
1785;SDS011;890;48.158;11.540;2024-02-28T03:48:54;33.00;;;22.40;;
1785;SDS011;890;48.158;11.540;2024-02-28T03:51:20;32.37;;;22.80;;
1785;SDS011;890;48.158;11.540;2024-02-28T03:53:46;30.43;;;22.87;;
1785;SDS011;890;48.158;11.540;2024-02-28T03:56:11;29.40;;;21.10;;
1785;SDS011;890;48.158;11.540;2024-02-28T03:58:37;32.30;;;22.77;;
1785;SDS011;890;48.158;11.540;2024-02-28T04:01:04;30.77;;;23.63;;
1785;SDS011;890;48.158;11.540;2024-02-28T04:03:30;30.50;;;22.50;;
1785;SDS011;890;48.158;11.540;2024-02-28T04:05:56;34.40;;;24.33;;
1785;SDS011;890;48.158;11.540;2024-02-28T04:08:22;33.37;;;24.27;;
1785;SDS011;890;48.158;11.540;2024-02-28T04:10:48;38.83;;;25.33;;
1785;SDS011;890;48.158;11.540;2024-02-28T04:13:15;34.03;;;23.37;;
1785;SDS011;890;48.158;11.540;2024-02-28T04:15:40;32.10;;;22.87;;
1785;SDS011;890;48.158;11.540;2024-02-28T04:18:06;30.50;;;22.67;;
1785;SDS011;890;48.158;11.540;2024-02-28T04:20:32;32.90;;;24.70;;
1785;SDS011;890;48.158;11.540;2024-02-28T04:22:58;33.57;;;23.07;;
1785;SDS011;890;48.158;11.540;2024-02-28T04:25:24;34.30;;;24.17;;
1785;SDS011;890;48.158;11.540;2024-02-28T04:27:49;33.33;;;23.97;;
1785;SDS011;890;48.158;11.540;2024-02-28T04:30:15;34.17;;;23.70;;
1785;SDS011;890;48.158;11.540;2024-02-28T04:32:41;32.97;;;23.57;;
1785;SDS011;890;48.158;11.540;2024-02-28T04:35:07;34.57;;;22.30;;
1785;SDS011;890;48.158;11.540;2024-02-28T04:37:32;31.70;;;22.27;;
1785;SDS011;890;48.158;11.540;2024-02-28T04:39:59;32.13;;;23.20;;
1785;SDS011;890;48.158;11.540;2024-02-28T04:42:26;34.03;;;24.57;;
1785;SDS011;890;48.158;11.540;2024-02-28T04:44:51;34.37;;;23.80;;
1785;SDS011;890;48.158;11.540;2024-02-28T04:47:17;37.47;;;24.60;;
1785;SDS011;890;48.158;11.540;2024-02-28T04:49:42;35.17;;;24.30;;
1785;SDS011;890;48.158;11.540;2024-02-28T04:52:08;33.63;;;25.67;;
1785;SDS011;890;48.158;11.540;2024-02-28T04:54:34;35.60;;;26.20;;
1785;SDS011;890;48.158;11.540;2024-02-28T04:56:59;35.60;;;24.57;;
1785;SDS011;890;48.158;11.540;2024-02-28T04:59:25;35.40;;;24.40;;
1785;SDS011;890;48.158;11.540;2024-02-28T05:01:51;37.33;;;24.70;;
1785;SDS011;890;48.158;11.540;2024-02-28T05:04:17;32.87;;;23.67;;
1785;SDS011;890;48.158;11.540;2024-02-28T05:06:43;37.23;;;24.60;;
1785;SDS011;890;48.158;11.540;2024-02-28T05:09:08;38.50;;;25.70;;
1785;SDS011;890;48.158;11.540;2024-02-28T05:11:34;33.27;;;23.97;;
1785;SDS011;890;48.158;11.540;2024-02-28T05:14:00;35.27;;;24.97;;
1785;SDS011;890;48.158;11.540;2024-02-28T05:16:25;35.83;;;25.70;;
1785;SDS011;890;48.158;11.540;2024-02-28T05:18:51;36.03;;;25.17;;
1785;SDS011;890;48.158;11.540;2024-02-28T05:21:17;37.03;;;25.50;;
1785;SDS011;890;48.158;11.540;2024-02-28T05:23:42;35.60;;;24.60;;
1785;SDS011;890;48.158;11.540;2024-02-28T05:26:08;35.67;;;24.90;;
1785;SDS011;890;48.158;11.540;2024-02-28T05:28:34;36.50;;;24.00;;
1785;SDS011;890;48.158;11.540;2024-02-28T05:33:46;34.97;;;24.30;;
1785;SDS011;890;48.158;11.540;2024-02-28T05:36:11;38.10;;;27.30;;
1785;SDS011;890;48.158;11.540;2024-02-28T05:38:37;39.93;;;25.13;;
1785;SDS011;890;48.158;11.540;2024-02-28T05:41:03;34.77;;;25.60;;
1785;SDS011;890;48.158;11.540;2024-02-28T05:43:28;35.47;;;25.20;;
1785;SDS011;890;48.158;11.540;2024-02-28T05:45:54;36.90;;;26.23;;
1785;SDS011;890;48.158;11.540;2024-02-28T05:48:19;38.30;;;26.60;;
1785;SDS011;890;48.158;11.540;2024-02-28T05:50:45;38.40;;;27.07;;
1785;SDS011;890;48.158;11.540;2024-02-28T05:53:11;38.70;;;27.50;;
1785;SDS011;890;48.158;11.540;2024-02-28T05:55:36;37.23;;;26.33;;
1785;SDS011;890;48.158;11.540;2024-02-28T05:58:02;37.33;;;26.67;;
1785;SDS011;890;48.158;11.540;2024-02-28T06:00:28;39.83;;;26.60;;
1785;SDS011;890;48.158;11.540;2024-02-28T06:02:54;36.37;;;25.63;;
1785;SDS011;890;48.158;11.540;2024-02-28T06:05:19;35.00;;;23.43;;
1785;SDS011;890;48.158;11.540;2024-02-28T06:07:45;37.17;;;23.87;;
1785;SDS011;890;48.158;11.540;2024-02-28T06:10:11;40.60;;;26.43;;
1785;SDS011;890;48.158;11.540;2024-02-28T06:12:36;37.57;;;25.13;;
1785;SDS011;890;48.158;11.540;2024-02-28T06:15:03;37.40;;;24.90;;
1785;SDS011;890;48.158;11.540;2024-02-28T06:17:29;39.13;;;26.40;;
1785;SDS011;890;48.158;11.540;2024-02-28T06:19:55;40.97;;;27.20;;
1785;SDS011;890;48.158;11.540;2024-02-28T06:22:21;35.80;;;26.17;;
1785;SDS011;890;48.158;11.540;2024-02-28T06:24:46;40.83;;;27.37;;
1785;SDS011;890;48.158;11.540;2024-02-28T06:27:12;37.10;;;26.10;;
1785;SDS011;890;48.158;11.540;2024-02-28T06:29:41;42.70;;;27.40;;
1785;SDS011;890;48.158;11.540;2024-02-28T06:32:07;43.03;;;27.97;;
1785;SDS011;890;48.158;11.540;2024-02-28T06:34:33;36.90;;;27.17;;
1785;SDS011;890;48.158;11.540;2024-02-28T06:36:58;41.07;;;25.37;;
1785;SDS011;890;48.158;11.540;2024-02-28T06:39:24;50.30;;;29.90;;
1785;SDS011;890;48.158;11.540;2024-02-28T06:41:50;40.40;;;26.67;;
1785;SDS011;890;48.158;11.540;2024-02-28T06:44:17;39.63;;;26.63;;
1785;SDS011;890;48.158;11.540;2024-02-28T06:46:43;42.47;;;26.83;;
1785;SDS011;890;48.158;11.540;2024-02-28T06:49:09;42.73;;;28.00;;
1785;SDS011;890;48.158;11.540;2024-02-28T06:51:35;39.77;;;26.70;;
1785;SDS011;890;48.158;11.540;2024-02-28T06:54:00;40.43;;;26.00;;
1785;SDS011;890;48.158;11.540;2024-02-28T06:56:26;45.43;;;27.27;;
1785;SDS011;890;48.158;11.540;2024-02-28T06:58:52;42.40;;;25.47;;
1785;SDS011;890;48.158;11.540;2024-02-28T07:01:17;41.47;;;24.70;;
1785;SDS011;890;48.158;11.540;2024-02-28T07:03:43;42.20;;;27.87;;
1785;SDS011;890;48.158;11.540;2024-02-28T07:06:09;43.50;;;26.30;;
1785;SDS011;890;48.158;11.540;2024-02-28T07:08:36;46.77;;;25.97;;
1785;SDS011;890;48.158;11.540;2024-02-28T07:11:02;48.50;;;26.77;;
1785;SDS011;890;48.158;11.540;2024-02-28T07:13:28;48.63;;;30.30;;
1785;SDS011;890;48.158;11.540;2024-02-28T07:15:54;44.37;;;29.97;;
1785;SDS011;890;48.158;11.540;2024-02-28T07:18:20;43.50;;;28.27;;
1785;SDS011;890;48.158;11.540;2024-02-28T07:20:45;47.80;;;30.70;;
1785;SDS011;890;48.158;11.540;2024-02-28T07:23:11;45.47;;;29.83;;
1785;SDS011;890;48.158;11.540;2024-02-28T07:25:37;44.90;;;29.17;;
1785;SDS011;890;48.158;11.540;2024-02-28T07:28:03;45.60;;;29.47;;
1785;SDS011;890;48.158;11.540;2024-02-28T07:30:29;45.70;;;27.80;;
1785;SDS011;890;48.158;11.540;2024-02-28T07:32:55;45.17;;;27.60;;
1785;SDS011;890;48.158;11.540;2024-02-28T07:35:21;46.10;;;29.37;;
1785;SDS011;890;48.158;11.540;2024-02-28T07:37:48;42.43;;;27.43;;
1785;SDS011;890;48.158;11.540;2024-02-28T07:40:14;46.90;;;29.07;;
1785;SDS011;890;48.158;11.540;2024-02-28T07:42:40;44.43;;;29.30;;
1785;SDS011;890;48.158;11.540;2024-02-28T07:45:06;44.57;;;29.97;;
1785;SDS011;890;48.158;11.540;2024-02-28T07:47:33;44.80;;;29.47;;
1785;SDS011;890;48.158;11.540;2024-02-28T07:49:59;43.87;;;28.93;;
1785;SDS011;890;48.158;11.540;2024-02-28T07:52:25;41.00;;;30.00;;
1785;SDS011;890;48.158;11.540;2024-02-28T07:54:51;45.50;;;29.50;;
1785;SDS011;890;48.158;11.540;2024-02-28T07:57:17;45.20;;;28.97;;
1785;SDS011;890;48.158;11.540;2024-02-28T07:59:43;48.20;;;29.97;;
1785;SDS011;890;48.158;11.540;2024-02-28T08:02:08;46.20;;;30.00;;
1785;SDS011;890;48.158;11.540;2024-02-28T08:04:38;47.03;;;29.30;;
1785;SDS011;890;48.158;11.540;2024-02-28T08:07:04;46.50;;;29.40;;
1785;SDS011;890;48.158;11.540;2024-02-28T08:09:30;47.77;;;30.87;;
1785;SDS011;890;48.158;11.540;2024-02-28T08:11:56;43.60;;;26.97;;
1785;SDS011;890;48.158;11.540;2024-02-28T08:14:23;45.07;;;25.00;;
1785;SDS011;890;48.158;11.540;2024-02-28T08:16:49;46.73;;;27.77;;
1785;SDS011;890;48.158;11.540;2024-02-28T08:19:15;54.17;;;29.23;;
1785;SDS011;890;48.158;11.540;2024-02-28T08:21:42;47.07;;;25.57;;
1785;SDS011;890;48.158;11.540;2024-02-28T08:24:08;45.00;;;26.60;;
1785;SDS011;890;48.158;11.540;2024-02-28T08:26:33;53.33;;;29.83;;
1785;SDS011;890;48.158;11.540;2024-02-28T08:29:00;44.87;;;28.00;;
1785;SDS011;890;48.158;11.540;2024-02-28T08:31:26;50.27;;;31.20;;
1785;SDS011;890;48.158;11.540;2024-02-28T08:33:52;46.70;;;27.43;;
1785;SDS011;890;48.158;11.540;2024-02-28T08:36:18;49.70;;;27.60;;
1785;SDS011;890;48.158;11.540;2024-02-28T08:38:44;47.83;;;30.17;;
1785;SDS011;890;48.158;11.540;2024-02-28T08:41:10;49.50;;;29.43;;
1785;SDS011;890;48.158;11.540;2024-02-28T08:43:38;47.80;;;29.50;;
1785;SDS011;890;48.158;11.540;2024-02-28T08:46:07;44.30;;;27.67;;
1785;SDS011;890;48.158;11.540;2024-02-28T08:48:32;48.33;;;28.80;;
1785;SDS011;890;48.158;11.540;2024-02-28T08:50:59;43.67;;;29.17;;
1785;SDS011;890;48.158;11.540;2024-02-28T08:53:24;44.70;;;29.13;;
1785;SDS011;890;48.158;11.540;2024-02-28T08:55:51;45.43;;;27.60;;
1785;SDS011;890;48.158;11.540;2024-02-28T08:58:16;47.50;;;29.70;;
1785;SDS011;890;48.158;11.540;2024-02-28T09:00:42;40.83;;;27.10;;
1785;SDS011;890;48.158;11.540;2024-02-28T09:03:08;43.37;;;29.10;;
1785;SDS011;890;48.158;11.540;2024-02-28T09:05:34;45.73;;;29.30;;
1785;SDS011;890;48.158;11.540;2024-02-28T09:08:00;47.90;;;28.67;;
1785;SDS011;890;48.158;11.540;2024-02-28T09:10:25;47.37;;;29.03;;
1785;SDS011;890;48.158;11.540;2024-02-28T09:12:51;44.30;;;27.80;;
1785;SDS011;890;48.158;11.540;2024-02-28T09:15:17;53.53;;;30.17;;
1785;SDS011;890;48.158;11.540;2024-02-28T09:17:43;45.03;;;28.60;;
1785;SDS011;890;48.158;11.540;2024-02-28T09:20:09;48.90;;;29.97;;
1785;SDS011;890;48.158;11.540;2024-02-28T09:22:35;47.20;;;29.60;;
1785;SDS011;890;48.158;11.540;2024-02-28T09:25:01;51.90;;;29.97;;
1785;SDS011;890;48.158;11.540;2024-02-28T09:27:29;52.73;;;30.00;;
1785;SDS011;890;48.158;11.540;2024-02-28T09:29:55;44.47;;;29.10;;
1785;SDS011;890;48.158;11.540;2024-02-28T09:32:21;51.00;;;30.80;;
1785;SDS011;890;48.158;11.540;2024-02-28T09:34:47;46.00;;;29.23;;
1785;SDS011;890;48.158;11.540;2024-02-28T09:37:13;46.10;;;28.10;;
1785;SDS011;890;48.158;11.540;2024-02-28T09:39:39;49.10;;;27.60;;
1785;SDS011;890;48.158;11.540;2024-02-28T09:42:06;45.60;;;27.40;;
1785;SDS011;890;48.158;11.540;2024-02-28T09:44:33;49.10;;;29.97;;
1785;SDS011;890;48.158;11.540;2024-02-28T09:46:59;45.80;;;26.77;;
1785;SDS011;890;48.158;11.540;2024-02-28T09:49:25;47.43;;;29.60;;
1785;SDS011;890;48.158;11.540;2024-02-28T09:51:52;43.27;;;28.27;;
1785;SDS011;890;48.158;11.540;2024-02-28T09:54:18;41.97;;;27.57;;
1785;SDS011;890;48.158;11.540;2024-02-28T09:56:44;40.10;;;26.40;;
1785;SDS011;890;48.158;11.540;2024-02-28T09:59:10;42.93;;;25.63;;
1785;SDS011;890;48.158;11.540;2024-02-28T10:01:41;42.17;;;25.77;;
1785;SDS011;890;48.158;11.540;2024-02-28T10:04:09;40.43;;;24.47;;
1785;SDS011;890;48.158;11.540;2024-02-28T10:06:41;48.33;;;28.30;;
1785;SDS011;890;48.158;11.540;2024-02-28T10:09:07;42.30;;;27.30;;
1785;SDS011;890;48.158;11.540;2024-02-28T10:11:33;42.60;;;26.33;;
1785;SDS011;890;48.158;11.540;2024-02-28T10:14:00;42.53;;;26.83;;
1785;SDS011;890;48.158;11.540;2024-02-28T10:16:26;42.23;;;27.17;;
1785;SDS011;890;48.158;11.540;2024-02-28T10:18:52;41.17;;;26.17;;
1785;SDS011;890;48.158;11.540;2024-02-28T10:21:18;43.60;;;25.20;;
1785;SDS011;890;48.158;11.540;2024-02-28T10:23:44;38.00;;;24.50;;
1785;SDS011;890;48.158;11.540;2024-02-28T10:26:11;43.27;;;26.30;;
1785;SDS011;890;48.158;11.540;2024-02-28T10:28:38;42.57;;;25.43;;
1785;SDS011;890;48.158;11.540;2024-02-28T10:31:05;42.37;;;25.30;;
1785;SDS011;890;48.158;11.540;2024-02-28T10:33:32;43.67;;;26.00;;
1785;SDS011;890;48.158;11.540;2024-02-28T10:35:58;40.93;;;26.57;;
1785;SDS011;890;48.158;11.540;2024-02-28T10:38:26;42.93;;;29.40;;
1785;SDS011;890;48.158;11.540;2024-02-28T10:40:52;37.50;;;24.37;;
1785;SDS011;890;48.158;11.540;2024-02-28T10:43:18;43.17;;;27.27;;
1785;SDS011;890;48.158;11.540;2024-02-28T10:45:45;37.60;;;24.90;;
1785;SDS011;890;48.158;11.540;2024-02-28T10:48:11;41.10;;;25.40;;
1785;SDS011;890;48.158;11.540;2024-02-28T10:50:40;42.83;;;28.30;;
1785;SDS011;890;48.158;11.540;2024-02-28T10:53:09;45.93;;;26.60;;
1785;SDS011;890;48.158;11.540;2024-02-28T10:55:41;41.00;;;26.97;;
1785;SDS011;890;48.158;11.540;2024-02-28T10:58:09;40.30;;;26.30;;
1785;SDS011;890;48.158;11.540;2024-02-28T11:00:36;43.30;;;26.37;;
1785;SDS011;890;48.158;11.540;2024-02-28T11:03:06;41.00;;;26.30;;
1785;SDS011;890;48.158;11.540;2024-02-28T11:05:38;38.50;;;25.50;;
1785;SDS011;890;48.158;11.540;2024-02-28T11:08:26;44.03;;;26.90;;
1785;SDS011;890;48.158;11.540;2024-02-28T11:10:55;43.47;;;27.80;;
1785;SDS011;890;48.158;11.540;2024-02-28T11:13:25;41.30;;;23.70;;
1785;SDS011;890;48.158;11.540;2024-02-28T11:15:52;40.17;;;24.10;;
1785;SDS011;890;48.158;11.540;2024-02-28T11:18:18;41.13;;;24.07;;
1785;SDS011;890;48.158;11.540;2024-02-28T11:20:44;45.63;;;25.80;;
1785;SDS011;890;48.158;11.540;2024-02-28T11:23:14;41.57;;;26.60;;
1785;SDS011;890;48.158;11.540;2024-02-28T11:25:41;43.10;;;25.70;;
1785;SDS011;890;48.158;11.540;2024-02-28T11:28:08;38.93;;;25.17;;
1785;SDS011;890;48.158;11.540;2024-02-28T11:30:34;45.87;;;25.67;;
1785;SDS011;890;48.158;11.540;2024-02-28T11:33:00;40.77;;;24.60;;
1785;SDS011;890;48.158;11.540;2024-02-28T11:35:26;39.40;;;24.80;;
1785;SDS011;890;48.158;11.540;2024-02-28T11:37:53;41.83;;;25.03;;
1785;SDS011;890;48.158;11.540;2024-02-28T11:40:22;39.77;;;23.43;;
1785;SDS011;890;48.158;11.540;2024-02-28T11:42:52;37.10;;;23.17;;
1785;SDS011;890;48.158;11.540;2024-02-28T11:45:18;37.13;;;22.60;;
1785;SDS011;890;48.158;11.540;2024-02-28T11:47:44;41.20;;;23.70;;
1785;SDS011;890;48.158;11.540;2024-02-28T11:50:10;41.73;;;25.30;;
1785;SDS011;890;48.158;11.540;2024-02-28T11:52:36;38.37;;;24.80;;
1785;SDS011;890;48.158;11.540;2024-02-28T11:55:02;42.77;;;25.87;;
1785;SDS011;890;48.158;11.540;2024-02-28T11:57:29;41.70;;;25.20;;
1785;SDS011;890;48.158;11.540;2024-02-28T11:59:58;44.23;;;25.43;;
1785;SDS011;890;48.158;11.540;2024-02-28T12:02:31;38.03;;;22.80;;
1785;SDS011;890;48.158;11.540;2024-02-28T12:05:01;38.47;;;23.40;;
1785;SDS011;890;48.158;11.540;2024-02-28T12:07:29;40.30;;;24.30;;
1785;SDS011;890;48.158;11.540;2024-02-28T12:09:54;41.07;;;24.87;;
1785;SDS011;890;48.158;11.540;2024-02-28T12:12:21;36.70;;;23.73;;
1785;SDS011;890;48.158;11.540;2024-02-28T12:14:47;41.03;;;25.70;;
1785;SDS011;890;48.158;11.540;2024-02-28T12:17:14;40.90;;;24.63;;
1785;SDS011;890;48.158;11.540;2024-02-28T12:19:40;41.67;;;23.97;;
1785;SDS011;890;48.158;11.540;2024-02-28T12:22:07;40.63;;;23.43;;
1785;SDS011;890;48.158;11.540;2024-02-28T12:24:32;39.97;;;23.37;;
1785;SDS011;890;48.158;11.540;2024-02-28T12:26:58;46.37;;;26.90;;
1785;SDS011;890;48.158;11.540;2024-02-28T12:29:24;38.50;;;22.20;;
1785;SDS011;890;48.158;11.540;2024-02-28T12:31:49;38.30;;;22.97;;
1785;SDS011;890;48.158;11.540;2024-02-28T12:34:15;39.77;;;24.17;;
1785;SDS011;890;48.158;11.540;2024-02-28T12:36:41;38.70;;;25.90;;
1785;SDS011;890;48.158;11.540;2024-02-28T12:39:07;38.70;;;24.10;;
1785;SDS011;890;48.158;11.540;2024-02-28T12:41:36;36.70;;;26.47;;
1785;SDS011;890;48.158;11.540;2024-02-28T12:44:05;39.07;;;26.07;;
1785;SDS011;890;48.158;11.540;2024-02-28T12:46:31;40.63;;;27.40;;
1785;SDS011;890;48.158;11.540;2024-02-28T12:49:00;40.27;;;26.50;;
1785;SDS011;890;48.158;11.540;2024-02-28T12:51:39;37.47;;;25.37;;
1785;SDS011;890;48.158;11.540;2024-02-28T12:54:06;38.17;;;26.30;;
1785;SDS011;890;48.158;11.540;2024-02-28T12:56:38;36.17;;;25.77;;
1785;SDS011;890;48.158;11.540;2024-02-28T12:59:05;37.20;;;26.90;;
1785;SDS011;890;48.158;11.540;2024-02-28T13:01:32;34.60;;;24.47;;
1785;SDS011;890;48.158;11.540;2024-02-28T13:03:58;38.17;;;25.43;;
1785;SDS011;890;48.158;11.540;2024-02-28T13:06:24;34.30;;;24.40;;
1785;SDS011;890;48.158;11.540;2024-02-28T13:08:49;39.00;;;24.90;;
1785;SDS011;890;48.158;11.540;2024-02-28T13:11:20;39.00;;;25.10;;
1785;SDS011;890;48.158;11.540;2024-02-28T13:13:47;36.00;;;24.60;;
1785;SDS011;890;48.158;11.540;2024-02-28T13:16:14;36.87;;;26.17;;
1785;SDS011;890;48.158;11.540;2024-02-28T13:18:43;37.40;;;25.20;;
1785;SDS011;890;48.158;11.540;2024-02-28T13:21:09;36.37;;;25.20;;
1785;SDS011;890;48.158;11.540;2024-02-28T13:23:35;36.63;;;24.90;;
1785;SDS011;890;48.158;11.540;2024-02-28T13:26:02;38.63;;;24.80;;
1785;SDS011;890;48.158;11.540;2024-02-28T13:28:28;36.80;;;26.27;;
1785;SDS011;890;48.158;11.540;2024-02-28T13:30:58;38.80;;;25.17;;
1785;SDS011;890;48.158;11.540;2024-02-28T13:33:27;36.57;;;24.80;;
1785;SDS011;890;48.158;11.540;2024-02-28T13:35:53;37.77;;;23.97;;
1785;SDS011;890;48.158;11.540;2024-02-28T13:38:19;35.90;;;24.00;;
1785;SDS011;890;48.158;11.540;2024-02-28T13:40:49;37.37;;;25.80;;
1785;SDS011;890;48.158;11.540;2024-02-28T13:43:15;37.97;;;26.20;;
1785;SDS011;890;48.158;11.540;2024-02-28T13:45:50;37.80;;;24.60;;
1785;SDS011;890;48.158;11.540;2024-02-28T13:48:17;36.53;;;25.77;;
1785;SDS011;890;48.158;11.540;2024-02-28T13:50:49;34.93;;;24.97;;
1785;SDS011;890;48.158;11.540;2024-02-28T13:53:15;35.60;;;25.67;;
1785;SDS011;890;48.158;11.540;2024-02-28T13:55:44;37.20;;;26.00;;
1785;SDS011;890;48.158;11.540;2024-02-28T13:58:14;34.97;;;23.70;;
1785;SDS011;890;48.158;11.540;2024-02-28T14:00:43;35.20;;;23.70;;
1785;SDS011;890;48.158;11.540;2024-02-28T14:03:10;36.97;;;24.17;;
1785;SDS011;890;48.158;11.540;2024-02-28T14:05:36;35.90;;;25.97;;
1785;SDS011;890;48.158;11.540;2024-02-28T14:08:01;38.47;;;25.50;;
1785;SDS011;890;48.158;11.540;2024-02-28T14:10:33;36.67;;;24.47;;
1785;SDS011;890;48.158;11.540;2024-02-28T14:12:59;36.07;;;24.23;;
1785;SDS011;890;48.158;11.540;2024-02-28T14:15:25;35.93;;;25.50;;
1785;SDS011;890;48.158;11.540;2024-02-28T14:17:50;38.30;;;25.23;;
1785;SDS011;890;48.158;11.540;2024-02-28T14:20:17;38.53;;;24.77;;
1785;SDS011;890;48.158;11.540;2024-02-28T14:22:43;39.63;;;25.77;;
1785;SDS011;890;48.158;11.540;2024-02-28T14:25:13;34.57;;;25.30;;
1785;SDS011;890;48.158;11.540;2024-02-28T14:27:41;35.13;;;24.73;;
1785;SDS011;890;48.158;11.540;2024-02-28T14:30:08;36.77;;;25.37;;
1785;SDS011;890;48.158;11.540;2024-02-28T14:32:35;33.50;;;21.93;;
1785;SDS011;890;48.158;11.540;2024-02-28T14:35:05;32.07;;;22.50;;
1785;SDS011;890;48.158;11.540;2024-02-28T14:37:31;33.73;;;24.20;;
1785;SDS011;890;48.158;11.540;2024-02-28T14:39:58;35.80;;;23.43;;
1785;SDS011;890;48.158;11.540;2024-02-28T14:42:26;36.47;;;25.80;;
1785;SDS011;890;48.158;11.540;2024-02-28T14:44:51;33.37;;;23.97;;
1785;SDS011;890;48.158;11.540;2024-02-28T14:47:18;36.73;;;25.50;;